This is the latest recevied weather packets stored in our database for station/object KQ4OSL. If no packets are shown the sender has not sent any weather packets the latest 10 day(s).
| Time | Temp. | Humidity | Pressure | Rain* | Wind** | Luminosity | Snow |
|---|---|---|---|---|---|---|---|
| 1787597171 | 31.11° C | 58% | 1018.8 hPa | 0 mm | - | 701 W/m² | - |
| 1787596867 | 31.11° C | 59% | 1018.9 hPa | 0 mm | - | 742 W/m² | - |
| 1787596563 | 31.11° C | 59% | 1018.8 hPa | 0 mm | - | 310 W/m² | - |
| 1787596258 | 31.11° C | 60% | 1018.9 hPa | 0 mm | - | 785 W/m² | - |
| 1787595954 | 31.67° C | 61% | 1018.7 hPa | 0 mm | - | 776 W/m² | - |
| 1787595649 | 31.11° C | 58% | 1018.7 hPa | 0 mm | - | 721 W/m² | - |
| 1787595345 | 31.11° C | 62% | 1018.8 hPa | 0 mm | - | 707 W/m² | - |
| 1787595044 | 30.56° C | 59% | 1018.8 hPa | 0 mm | - | 726 W/m² | - |
| 1787569551 | 17.78° C | 99% | 1019 hPa | 0 mm | - | 0 W/m² | - |
| 1787569250 | 17.78° C | 99% | 1018.9 hPa | 4.32 mm | - | 0 W/m² | - |
| 1787568950 | 17.78° C | 99% | 1018.7 hPa | 4.32 mm | - | 0 W/m² | - |
| 1787568645 | 17.22° C | 99% | 1018.8 hPa | 0 mm | - | 0 W/m² | - |
| 1787568341 | 17.78° C | 99% | 1018.6 hPa | 1.78 mm | - | 0 W/m² | - |
| 1787568036 | 17.78° C | 99% | 1018.5 hPa | 1.78 mm | - | 0 W/m² | - |
| 1787567732 | 18.33° C | 99% | 1018.6 hPa | 0 mm | - | 0 W/m² | - |
| 1787567427 | 18.33° C | 99% | 1018.6 hPa | 0 mm | - | 0 W/m² | - |
| 1787567126 | 18.33° C | 99% | 1018.3 hPa | 0 mm | - | 0 W/m² | - |
| 1787566826 | 18.33° C | 99% | 1018.3 hPa | 0 mm | - | 0 W/m² | - |
| 1787566521 | 18.33° C | 99% | 1018.5 hPa | 0 mm | - | 0 W/m² | - |
| 1787566216 | 18.33° C | 99% | 1018.5 hPa | 0 mm | - | 0 W/m² | - |
| 1787565912 | 18.33° C | 99% | 1018.5 hPa | 0 mm | - | 0 W/m² | - |
| 1787565607 | 18.33° C | 99% | 1018.3 hPa | 0 mm | - | 0 W/m² | - |
| 1787565303 | 18.89° C | 99% | 1018.3 hPa | 0 mm | - | 0 W/m² | - |
| 1787565000 | 18.89° C | 99% | 1018.3 hPa | 0 mm | - | 0 W/m² | - |
| 1787564695 | 18.89° C | 99% | 1018.3 hPa | 0 mm | - | 0 W/m² | - |
* Rain latest hour (hover to see other rain measurements)
** Current wind speed in m/s (hover to see current wind gust speed)